Time;durP1;ratioP1;P1;durP2;ratioP2;P2;SDS_P1;SDS_P2;PMS_P1;PMS_P2;Temp;Humidity;BMP_temperature;BMP_pressure;BME280_temperature;BME280_humidity;BME280_pressure;Samples;Min_cycle;Max_cycle;Signal;HPM_P1;HPM_P2
2022/01/17 00:00:32;;;;;;;9.90;4.53;;;;;;;;;;5073343;28;20390;-38
2022/01/17 00:02:59;;;;;;;11.70;4.97;;;;;;;;;;5072919;28;20028;-38
2022/01/17 00:05:25;;;;;;;9.90;3.47;;;;;;;;;;5073310;28;20029;-38
2022/01/17 00:07:51;;;;;;;8.40;4.65;;;;;;;;;;5072775;28;20036;-39
2022/01/17 00:10:16;;;;;;;7.85;3.70;;;;;;;;;;5072953;28;20059;-38
2022/01/17 00:12:45;;;;;;;6.28;3.78;;;;;;;;;;5072807;28;20033;-42
2022/01/17 00:15:19;;;;;;;8.32;4.70;;;;;;;;;;5071298;28;20021;-38
2022/01/17 00:17:49;;;;;;;8.07;4.32;;;;;;;;;;5072727;28;20486;-38
2022/01/17 00:20:17;;;;;;;8.48;3.63;;;;;;;;;;5073058;28;20028;-38
2022/01/17 00:22:45;;;;;;;5.47;3.80;;;;;;;;;;5072811;28;20117;-38
2022/01/17 00:25:10;;;;;;;7.03;3.42;;;;;;;;;;5072586;28;20021;-38
2022/01/17 00:27:36;;;;;;;8.25;3.58;;;;;;;;;;5072756;28;20611;-38
2022/01/17 00:30:03;;;;;;;6.57;3.28;;;;;;;;;;5072363;28;20139;-38
2022/01/17 00:32:30;;;;;;;9.75;4.28;;;;;;;;;;5072593;28;20429;-38
2022/01/17 00:34:56;;;;;;;9.65;4.85;;;;;;;;;;5072358;28;20070;-38
2022/01/17 00:37:21;;;;;;;6.50;4.20;;;;;;;;;;5072304;28;20044;-38
2022/01/17 00:39:47;;;;;;;7.60;4.53;;;;;;;;;;5072307;28;20048;-38
2022/01/17 00:42:12;;;;;;;4.00;3.42;;;;;;;;;;5072179;28;20056;-39
2022/01/17 00:44:38;;;;;;;9.98;3.88;;;;;;;;;;5072031;28;20506;-38
2022/01/17 00:47:04;;;;;;;7.00;5.07;;;;;;;;;;5072485;28;20115;-38
2022/01/17 00:49:29;;;;;;;9.38;4.20;;;;;;;;;;5072007;28;20031;-38
2022/01/17 00:51:55;;;;;;;9.05;4.00;;;;;;;;;;5072314;28;20032;-38
2022/01/17 00:54:20;;;;;;;6.47;4.57;;;;;;;;;;5072079;28;20020;-39
2022/01/17 00:56:45;;;;;;;9.07;4.65;;;;;;;;;;5071981;28;20135;-38
2022/01/17 00:59:11;;;;;;;7.68;4.60;;;;;;;;;;5072000;28;20103;-38
2022/01/17 01:01:36;;;;;;;8.93;4.32;;;;;;;;;;5072153;28;20039;-38
2022/01/17 01:04:02;;;;;;;8.18;4.18;;;;;;;;;;5072025;28;20017;-40
2022/01/17 01:06:27;;;;;;;7.47;4.28;;;;;;;;;;5072135;28;20029;-38
2022/01/17 01:08:53;;;;;;;12.10;5.45;;;;;;;;;;5071723;28;20050;-38
2022/01/17 01:11:18;;;;;;;12.40;5.85;;;;;;;;;;5071732;28;20042;-38
2022/01/17 01:13:43;;;;;;;10.27;4.80;;;;;;;;;;5071655;28;20031;-39
2022/01/17 01:29:24;;;;;;;6.72;3.95;;;;;;;;;;5071739;28;20108;-38
2022/01/17 01:31:54;;;;;;;7.07;4.07;;;;;;;;;;5071475;28;20032;-38
2022/01/17 01:34:28;;;;;;;7.80;4.55;;;;;;;;;;5071269;28;20435;-43
2022/01/17 01:36:54;;;;;;;9.00;4.63;;;;;;;;;;5071301;28;20040;-38
2022/01/17 01:39:24;;;;;;;6.80;4.13;;;;;;;;;;5071330;28;20009;-38
2022/01/17 01:41:50;;;;;;;9.68;4.70;;;;;;;;;;5070640;28;20048;-38
2022/01/17 01:44:17;;;;;;;8.88;5.25;;;;;;;;;;5071402;28;20109;-38
2022/01/17 01:46:43;;;;;;;7.20;3.80;;;;;;;;;;5071448;28;20394;-38
2022/01/17 01:49:09;;;;;;;8.98;4.50;;;;;;;;;;5071338;28;20027;-38
2022/01/17 01:51:35;;;;;;;13.35;5.47;;;;;;;;;;5086744;28;20386;-38
2022/01/17 01:54:00;;;;;;;8.10;4.68;;;;;;;;;;5071187;28;20028;-38
2022/01/17 01:56:26;;;;;;;6.95;3.83;;;;;;;;;;5071234;28;20047;-38
2022/01/17 01:58:51;;;;;;;7.43;4.28;;;;;;;;;;5071326;28;20108;-38
2022/01/17 02:01:17;;;;;;;11.32;4.22;;;;;;;;;;5071053;28;20043;-38
2022/01/17 02:03:42;;;;;;;8.32;4.13;;;;;;;;;;5070943;28;20021;-38
2022/01/17 02:06:08;;;;;;;5.40;2.97;;;;;;;;;;5071215;28;20040;-38
2022/01/17 02:08:34;;;;;;;6.97;3.45;;;;;;;;;;5071145;28;20021;-38
2022/01/17 02:10:59;;;;;;;12.70;4.60;;;;;;;;;;5071287;28;20139;-38
2022/01/17 02:13:25;;;;;;;7.45;3.35;;;;;;;;;;5071051;28;20048;-39
2022/01/17 02:15:52;;;;;;;9.23;4.15;;;;;;;;;;5071151;28;20044;-38
2022/01/17 02:18:29;;;;;;;7.30;4.22;;;;;;;;;;5071016;28;20024;-39
2022/01/17 02:21:20;;;;;;;6.30;4.10;;;;;;;;;;5071292;28;20037;-38
2022/01/17 02:23:47;;;;;;;6.63;4.10;;;;;;;;;;5071100;28;20035;-38
2022/01/17 02:26:13;;;;;;;6.32;4.18;;;;;;;;;;5070761;28;20044;-39
2022/01/17 02:28:43;;;;;;;8.13;3.47;;;;;;;;;;5071124;28;20040;-38
2022/01/17 02:31:08;;;;;;;5.45;3.83;;;;;;;;;;5070818;28;20487;-38
2022/01/17 02:33:34;;;;;;;7.68;4.15;;;;;;;;;;5069887;28;20031;-38
2022/01/17 02:36:01;;;;;;;7.35;4.78;;;;;;;;;;5070979;28;20378;-38
2022/01/17 02:38:27;;;;;;;10.38;4.30;;;;;;;;;;5070656;28;20032;-38
2022/01/17 02:40:53;;;;;;;8.73;4.90;;;;;;;;;;5070802;28;20052;-38
2022/01/17 02:43:21;;;;;;;6.45;4.03;;;;;;;;;;5070809;28;20036;-38
2022/01/17 02:48:19;;;;;;;8.60;4.40;;;;;;;;;;5070789;28;20025;-38
2022/01/17 02:50:45;;;;;;;7.22;4.15;;;;;;;;;;5070523;28;20059;-39
2022/01/17 02:53:12;;;;;;;6.03;3.70;;;;;;;;;;5072046;28;20497;-39
2022/01/17 02:55:39;;;;;;;9.50;3.83;;;;;;;;;;5074130;28;20085;-38
2022/01/17 02:58:05;;;;;;;6.18;4.47;;;;;;;;;;5074240;28;20025;-38
2022/01/17 03:00:30;;;;;;;10.75;4.60;;;;;;;;;;5074184;28;20082;-38
2022/01/17 03:02:56;;;;;;;11.15;5.38;;;;;;;;;;5072858;28;20025;-38
2022/01/17 03:05:22;;;;;;;8.48;4.32;;;;;;;;;;5074061;28;20471;-38
2022/01/17 03:07:49;;;;;;;5.50;3.67;;;;;;;;;;5073978;28;20483;-38
2022/01/17 03:12:48;;;;;;;11.43;4.85;;;;;;;;;;5074240;28;20090;-38
2022/01/17 03:15:14;;;;;;;8.90;4.97;;;;;;;;;;5074115;28;20036;-38
2022/01/17 03:17:40;;;;;;;8.52;5.38;;;;;;;;;;5074129;28;20028;-38
2022/01/17 03:20:06;;;;;;;8.73;3.97;;;;;;;;;;5074065;28;20032;-39
2022/01/17 03:22:32;;;;;;;11.25;4.32;;;;;;;;;;5073838;28;20029;-38
2022/01/17 03:24:58;;;;;;;8.45;5.47;;;;;;;;;;5073799;28;20028;-38
2022/01/17 03:27:24;;;;;;;6.55;4.13;;;;;;;;;;5073907;28;20028;-38
2022/01/17 03:29:49;;;;;;;6.57;4.38;;;;;;;;;;5073907;28;20026;-38
2022/01/17 03:32:15;;;;;;;8.35;4.43;;;;;;;;;;5073874;28;20582;-38
2022/01/17 03:34:40;;;;;;;8.50;4.70;;;;;;;;;;5073794;28;20032;-38
2022/01/17 03:37:06;;;;;;;8.43;4.38;;;;;;;;;;5073518;28;20036;-38
2022/01/17 03:39:31;;;;;;;9.00;4.80;;;;;;;;;;5073503;28;20091;-38
2022/01/17 03:41:56;;;;;;;7.53;4.93;;;;;;;;;;5073389;28;20044;-38
2022/01/17 03:44:22;;;;;;;8.40;3.75;;;;;;;;;;5073468;28;20383;-38
2022/01/17 03:46:47;;;;;;;4.25;3.25;;;;;;;;;;5073371;28;20032;-38
2022/01/17 03:49:12;;;;;;;6.78;4.38;;;;;;;;;;5089298;28;20538;-38
2022/01/17 03:51:38;;;;;;;10.32;4.88;;;;;;;;;;5073340;28;20032;-38
2022/01/17 03:54:03;;;;;;;7.05;4.10;;;;;;;;;;5073126;28;20524;-38
2022/01/17 03:56:29;;;;;;;10.45;3.90;;;;;;;;;;5073147;28;20123;-38
2022/01/17 03:58:54;;;;;;;9.50;4.15;;;;;;;;;;5073173;28;20070;-38
2022/01/17 04:01:20;;;;;;;5.90;3.28;;;;;;;;;;5073399;28;20107;-38
2022/01/17 04:03:46;;;;;;;8.13;4.03;;;;;;;;;;5072395;28;20471;-38
2022/01/17 04:06:14;;;;;;;7.03;4.20;;;;;;;;;;5073030;28;20393;-38
2022/01/17 04:08:40;;;;;;;10.27;4.20;;;;;;;;;;5073193;28;20436;-38
2022/01/17 04:11:05;;;;;;;6.40;4.10;;;;;;;;;;5072921;28;20103;-38
2022/01/17 04:13:32;;;;;;;5.15;3.15;;;;;;;;;;5073083;28;20082;-38
2022/01/17 04:15:58;;;;;;;9.23;4.68;;;;;;;;;;5072701;28;20049;-38
2022/01/17 04:18:24;;;;;;;5.97;3.72;;;;;;;;;;5073017;28;20025;-38
2022/01/17 04:20:50;;;;;;;9.98;4.97;;;;;;;;;;5072698;28;20407;-38
2022/01/17 04:23:18;;;;;;;5.93;3.90;;;;;;;;;;5072661;28;20048;-38
2022/01/17 04:25:43;;;;;;;9.55;3.58;;;;;;;;;;5072812;28;20044;-38
2022/01/17 04:28:09;;;;;;;11.13;4.38;;;;;;;;;;5072847;28;20047;-38
2022/01/17 04:30:35;;;;;;;9.20;5.75;;;;;;;;;;5072771;28;20060;-38
2022/01/17 04:33:01;;;;;;;8.85;4.95;;;;;;;;;;5072661;28;20044;-38
2022/01/17 04:35:27;;;;;;;9.85;4.75;;;;;;;;;;5072280;28;20037;-38
2022/01/17 04:38:04;;;;;;;11.02;5.00;;;;;;;;;;5072324;28;20035;-38
2022/01/17 04:40:35;;;;;;;10.10;4.57;;;;;;;;;;5072395;28;20032;-38
2022/01/17 04:43:02;;;;;;;8.48;4.75;;;;;;;;;;5072224;28;20475;-38
2022/01/17 04:45:28;;;;;;;8.73;4.53;;;;;;;;;;5072159;28;20036;-38
2022/01/17 04:47:53;;;;;;;12.75;4.38;;;;;;;;;;5072325;28;20028;-38
2022/01/17 04:50:21;;;;;;;7.30;3.90;;;;;;;;;;5072215;28;20535;-38
2022/01/17 04:52:47;;;;;;;19.25;5.25;;;;;;;;;;5071918;28;20033;-38
2022/01/17 04:55:14;;;;;;;11.80;5.93;;;;;;;;;;5072176;28;20028;-38
2022/01/17 04:57:41;;;;;;;10.40;4.72;;;;;;;;;;5072088;28;20528;-38
2022/01/17 05:00:07;;;;;;;6.30;3.30;;;;;;;;;;5072182;28;20028;-38
2022/01/17 05:02:32;;;;;;;8.68;4.18;;;;;;;;;;5072191;28;20063;-38
2022/01/17 05:04:58;;;;;;;10.80;4.90;;;;;;;;;;5072102;28;20059;-38
2022/01/17 05:07:24;;;;;;;8.25;4.60;;;;;;;;;;5071820;28;20404;-38
2022/01/17 05:09:49;;;;;;;9.40;4.10;;;;;;;;;;5071755;28;20403;-38
2022/01/17 05:12:15;;;;;;;9.75;4.82;;;;;;;;;;5071755;28;20063;-38
2022/01/17 05:14:43;;;;;;;9.32;4.75;;;;;;;;;;5071379;28;20024;-38
2022/01/17 05:17:23;;;;;;;7.95;5.03;;;;;;;;;;5071175;28;20132;-38
2022/01/17 05:19:49;;;;;;;8.48;4.40;;;;;;;;;;5071717;28;20031;-41
2022/01/17 05:22:17;;;;;;;10.05;3.08;;;;;;;;;;5071600;28;20025;-38
2022/01/17 05:24:43;;;;;;;7.93;4.78;;;;;;;;;;5071467;28;20467;-38
2022/01/17 05:27:08;;;;;;;9.50;5.10;;;;;;;;;;5071516;28;20069;-38
2022/01/17 05:29:34;;;;;;;11.00;6.13;;;;;;;;;;5071506;28;20037;-38
2022/01/17 05:32:00;;;;;;;9.25;5.50;;;;;;;;;;5071480;28;20294;-38
2022/01/17 05:34:25;;;;;;;7.18;5.18;;;;;;;;;;5071358;28;20503;-38
2022/01/17 05:36:50;;;;;;;9.82;5.43;;;;;;;;;;5086854;28;20475;-39
2022/01/17 05:39:16;;;;;;;9.38;5.50;;;;;;;;;;5070293;28;20032;-38
2022/01/17 05:41:42;;;;;;;10.70;4.68;;;;;;;;;;5071359;28;20044;-38
2022/01/17 05:44:07;;;;;;;6.35;4.75;;;;;;;;;;5071407;28;20032;-38
2022/01/17 05:46:33;;;;;;;8.80;4.82;;;;;;;;;;5071278;28;20024;-38
2022/01/17 05:48:58;;;;;;;10.27;4.93;;;;;;;;;;5071232;28;20127;-38
2022/01/17 05:51:24;;;;;;;11.55;3.70;;;;;;;;;;5071588;28;20402;-38
2022/01/17 05:53:49;;;;;;;13.57;4.82;;;;;;;;;;5071407;28;20036;-38
2022/01/17 05:56:14;;;;;;;8.02;4.50;;;;;;;;;;5071416;28;20554;-38
2022/01/17 05:58:40;;;;;;;6.90;4.57;;;;;;;;;;5071205;28;20039;-38
2022/01/17 06:01:06;;;;;;;7.85;4.32;;;;;;;;;;5071139;28;20430;-37
2022/01/17 06:03:32;;;;;;;6.63;4.13;;;;;;;;;;5071112;28;20028;-37
2022/01/17 06:05:57;;;;;;;8.18;5.50;;;;;;;;;;5071087;28;20032;-38
2022/01/17 06:08:23;;;;;;;9.63;5.43;;;;;;;;;;5071150;28;20039;-38
2022/01/17 06:10:49;;;;;;;12.77;4.60;;;;;;;;;;5071028;28;20055;-38
2022/01/17 06:13:14;;;;;;;8.70;5.13;;;;;;;;;;5071275;28;20035;-38
2022/01/17 06:15:40;;;;;;;10.20;5.25;;;;;;;;;;5071039;28;20032;-38
2022/01/17 06:18:05;;;;;;;7.32;3.42;;;;;;;;;;5086408;28;20440;-38
2022/01/17 06:20:30;;;;;;;7.95;4.57;;;;;;;;;;5070995;28;20029;-38
2022/01/17 06:22:56;;;;;;;9.75;5.20;;;;;;;;;;5070936;28;20086;-38
2022/01/17 06:25:21;;;;;;;7.63;4.32;;;;;;;;;;5070918;28;20020;-38
2022/01/17 06:27:47;;;;;;;7.25;4.95;;;;;;;;;;5073794;28;20033;-38
2022/01/17 06:30:15;;;;;;;9.77;4.25;;;;;;;;;;5075076;28;20027;-38
2022/01/17 06:32:41;;;;;;;6.22;3.63;;;;;;;;;;5074818;28;20544;-38
2022/01/17 06:35:07;;;;;;;8.88;5.32;;;;;;;;;;5075063;28;20059;-38
2022/01/17 06:37:32;;;;;;;7.93;4.50;;;;;;;;;;5074637;28;20040;-38
2022/01/17 06:39:58;;;;;;;8.73;5.20;;;;;;;;;;5074849;28;20025;-38
2022/01/17 06:42:23;;;;;;;8.60;4.03;;;;;;;;;;5074399;28;20142;-38
2022/01/17 06:44:49;;;;;;;8.25;4.95;;;;;;;;;;5074501;28;20047;-39
2022/01/17 06:47:14;;;;;;;10.23;4.68;;;;;;;;;;5074745;28;20042;-38
2022/01/17 06:49:40;;;;;;;22.25;7.82;;;;;;;;;;5074411;28;20039;-38
2022/01/17 06:52:05;;;;;;;11.40;6.47;;;;;;;;;;5090320;28;20090;-38
2022/01/17 06:54:31;;;;;;;9.85;5.05;;;;;;;;;;5074373;28;20070;-38
2022/01/17 06:56:56;;;;;;;7.05;3.83;;;;;;;;;;5074107;28;20082;-38
2022/01/17 06:59:22;;;;;;;10.48;4.10;;;;;;;;;;5074553;28;20020;-38
2022/01/17 07:01:47;;;;;;;8.48;4.25;;;;;;;;;;5074400;28;20036;-38
2022/01/17 07:04:13;;;;;;;10.88;6.05;;;;;;;;;;5074220;28;20740;-38
2022/01/17 07:06:39;;;;;;;9.35;4.55;;;;;;;;;;5074224;28;20033;-38
2022/01/17 07:09:09;;;;;;;8.15;4.40;;;;;;;;;;5074079;28;20055;-38
2022/01/17 07:11:39;;;;;;;9.55;5.70;;;;;;;;;;5074430;28;20040;-41
2022/01/17 07:14:11;;;;;;;11.77;5.07;;;;;;;;;;5073856;28;20028;-37
2022/01/17 07:16:37;;;;;;;11.25;4.65;;;;;;;;;;5073999;28;20527;-37
2022/01/17 07:19:03;;;;;;;12.20;4.60;;;;;;;;;;5072539;28;20029;-38
2022/01/17 07:21:29;;;;;;;8.45;4.40;;;;;;;;;;5073843;28;20514;-38
2022/01/17 07:23:55;;;;;;;12.30;5.13;;;;;;;;;;5073733;28;20024;-38
2022/01/17 07:26:21;;;;;;;8.15;5.35;;;;;;;;;;5073822;28;20025;-37
2022/01/17 07:28:46;;;;;;;10.95;5.15;;;;;;;;;;5073769;28;20016;-38
2022/01/17 07:31:12;;;;;;;11.15;4.47;;;;;;;;;;5073713;28;20032;-38
2022/01/17 07:33:38;;;;;;;8.02;4.57;;;;;;;;;;5073758;28;20012;-38
2022/01/17 07:36:06;;;;;;;11.10;5.00;;;;;;;;;;5073465;28;20075;-37
2022/01/17 07:38:33;;;;;;;8.85;4.65;;;;;;;;;;5071505;28;20079;-38
2022/01/17 07:40:59;;;;;;;7.30;4.68;;;;;;;;;;5073495;28;20107;-38
2022/01/17 07:43:25;;;;;;;9.15;5.18;;;;;;;;;;5073382;28;20506;-38
2022/01/17 07:46:25;;;;;;;7.93;4.32;;;;;;;;;;5073653;28;20112;-38
2022/01/17 07:48:58;;;;;;;9.02;5.10;;;;;;;;;;5071302;28;20127;-38
2022/01/17 07:51:24;;;;;;;7.53;4.30;;;;;;;;;;5073567;28;20024;-38
2022/01/17 07:53:50;;;;;;;13.38;4.63;;;;;;;;;;5073203;28;20100;-38
2022/01/17 07:56:16;;;;;;;9.40;4.82;;;;;;;;;;5088865;28;20119;-38
2022/01/17 07:58:42;;;;;;;9.10;4.45;;;;;;;;;;5073448;28;20052;-39
2022/01/17 08:01:08;;;;;;;7.97;5.13;;;;;;;;;;5073143;28;20513;-38
2022/01/17 08:03:34;;;;;;;7.18;4.72;;;;;;;;;;5073013;28;20100;-37
2022/01/17 08:05:59;;;;;;;10.70;4.95;;;;;;;;;;5073155;28;20123;-38
2022/01/17 08:08:25;;;;;;;6.75;4.97;;;;;;;;;;5073076;28;20020;-38
2022/01/17 08:10:51;;;;;;;8.43;4.45;;;;;;;;;;5071570;28;20037;-38
2022/01/17 08:13:18;;;;;;;12.27;5.30;;;;;;;;;;5072965;28;20020;-37
2022/01/17 08:15:45;;;;;;;7.55;4.72;;;;;;;;;;5072751;28;20040;-37
2022/01/17 08:18:10;;;;;;;12.18;4.93;;;;;;;;;;5072724;28;20021;-38
2022/01/17 08:20:36;;;;;;;7.78;3.85;;;;;;;;;;5072721;28;20525;-38
2022/01/17 08:23:02;;;;;;;10.32;4.65;;;;;;;;;;5072534;28;20024;-38
2022/01/17 08:25:28;;;;;;;7.65;4.20;;;;;;;;;;5072570;28;20032;-38
2022/01/17 08:27:53;;;;;;;8.90;5.15;;;;;;;;;;5072859;28;20024;-38
2022/01/17 08:30:19;;;;;;;7.35;4.50;;;;;;;;;;5072547;28;20024;-37
2022/01/17 08:32:44;;;;;;;9.13;4.70;;;;;;;;;;5072255;28;20379;-38
2022/01/17 08:35:11;;;;;;;8.93;5.05;;;;;;;;;;5072489;28;20024;-38
2022/01/17 08:37:37;;;;;;;7.78;5.35;;;;;;;;;;5072639;28;20436;-37
2022/01/17 08:40:04;;;;;;;6.25;4.35;;;;;;;;;;5072264;28;20028;-38
2022/01/17 08:42:29;;;;;;;6.47;4.68;;;;;;;;;;5072090;28;20049;-38
2022/01/17 08:44:56;;;;;;;8.02;4.75;;;;;;;;;;5072517;28;20028;-37
2022/01/17 08:47:22;;;;;;;7.30;4.20;;;;;;;;;;5072464;28;20493;-37
2022/01/17 08:49:48;;;;;;;10.80;5.10;;;;;;;;;;5072045;28;20037;-37
2022/01/17 08:52:15;;;;;;;6.78;4.65;;;;;;;;;;5072198;28;20066;-37
2022/01/17 08:54:44;;;;;;;13.30;4.72;;;;;;;;;;5071872;28;20454;-37
2022/01/17 08:57:10;;;;;;;9.30;4.50;;;;;;;;;;5071981;28;20067;-38
2022/01/17 08:59:50;;;;;;;6.63;4.10;;;;;;;;;;5072361;28;20031;-38
2022/01/17 09:02:16;;;;;;;4.78;3.83;;;;;;;;;;5071919;28;20044;-38
2022/01/17 09:04:42;;;;;;;7.10;4.38;;;;;;;;;;5087497;28;20021;-38
2022/01/17 09:07:08;;;;;;;7.22;5.07;;;;;;;;;;5071817;28;20102;-38
2022/01/17 09:09:34;;;;;;;9.98;4.50;;;;;;;;;;5071755;28;20062;-38
2022/01/17 09:11:59;;;;;;;8.18;4.72;;;;;;;;;;5070397;28;20032;-38
2022/01/17 09:14:27;;;;;;;7.30;4.28;;;;;;;;;;5071805;28;20028;-38
2022/01/17 09:16:52;;;;;;;7.60;4.20;;;;;;;;;;5071510;28;20124;-38
2022/01/17 09:19:18;;;;;;;17.23;5.18;;;;;;;;;;5087255;28;20504;-38
2022/01/17 09:21:43;;;;;;;7.93;4.18;;;;;;;;;;5071618;28;20028;-38
2022/01/17 09:24:08;;;;;;;7.88;4.40;;;;;;;;;;5071493;28;20028;-38
2022/01/17 09:26:34;;;;;;;10.40;4.93;;;;;;;;;;5071578;28;20099;-38
2022/01/17 09:29:00;;;;;;;8.50;4.95;;;;;;;;;;5071786;28;20454;-38
2022/01/17 09:31:25;;;;;;;8.95;4.82;;;;;;;;;;5071537;28;20071;-38
2022/01/17 09:33:50;;;;;;;10.88;5.15;;;;;;;;;;5071660;28;20167;-38
2022/01/17 09:36:16;;;;;;;12.68;4.43;;;;;;;;;;5071616;28;20033;-37
2022/01/17 09:38:41;;;;;;;9.82;4.40;;;;;;;;;;5071371;28;20021;-38
2022/01/17 09:41:07;;;;;;;7.10;4.30;;;;;;;;;;5071289;28;20399;-38
2022/01/17 09:43:34;;;;;;;7.22;4.50;;;;;;;;;;5071263;28;20110;-38
2022/01/17 09:46:00;;;;;;;8.32;4.13;;;;;;;;;;5071526;28;20128;-41
2022/01/17 09:48:34;;;;;;;8.68;4.72;;;;;;;;;;5071385;28;20515;-37
2022/01/17 09:54:06;;;;;;;9.15;4.82;;;;;;;;;;5059899;28;20036;-38
2022/01/17 09:56:31;;;;;;;5.45;3.53;;;;;;;;;;5071305;28;20028;-38
2022/01/17 09:58:58;;;;;;;5.75;3.42;;;;;;;;;;5071370;28;20025;-37
2022/01/17 10:01:24;;;;;;;10.07;4.40;;;;;;;;;;5072534;28;20092;-38
2022/01/17 10:03:52;;;;;;;11.55;5.05;;;;;;;;;;5077734;28;20394;-38
2022/01/17 10:06:19;;;;;;;7.95;4.93;;;;;;;;;;5077709;28;20031;-37
2022/01/17 10:08:45;;;;;;;8.45;5.03;;;;;;;;;;5077987;28;20036;-38
2022/01/17 10:11:16;;;;;;;6.53;4.80;;;;;;;;;;5077758;28;20028;-38
2022/01/17 10:13:45;;;;;;;7.63;4.85;;;;;;;;;;5077744;28;20222;-38
2022/01/17 10:16:13;;;;;;;9.48;4.80;;;;;;;;;;5077940;28;20111;-38
2022/01/17 10:18:54;;;;;;;7.82;4.45;;;;;;;;;;5077710;28;20055;-38
2022/01/17 10:21:43;;;;;;;6.15;4.10;;;;;;;;;;5077907;28;20379;-37
2022/01/17 10:24:41;;;;;;;7.03;4.40;;;;;;;;;;5077507;28;20475;-37
2022/01/17 10:35:25;;;;;;;8.13;3.92;;;;;;;;;;5077380;28;20025;-38
2022/01/17 10:38:03;;;;;;;9.60;4.35;;;;;;;;;;5077382;28;20081;-38
2022/01/17 10:40:33;;;;;;;7.15;3.90;;;;;;;;;;5077177;28;20387;-37
2022/01/17 10:43:01;;;;;;;13.35;5.40;;;;;;;;;;5077457;28;20028;-37
2022/01/17 10:45:31;;;;;;;6.90;4.47;;;;;;;;;;5077707;28;20493;-37
2022/01/17 10:47:58;;;;;;;9.93;5.20;;;;;;;;;;5092946;28;20032;-38
2022/01/17 10:50:30;;;;;;;7.65;4.22;;;;;;;;;;5077420;28;20504;-38
2022/01/17 10:52:58;;;;;;;8.77;5.25;;;;;;;;;;5077269;28;20032;-38
2022/01/17 10:55:25;;;;;;;8.98;4.38;;;;;;;;;;5092793;28;20033;-38
2022/01/17 10:57:52;;;;;;;9.20;4.82;;;;;;;;;;5077524;28;20033;-38
2022/01/17 11:00:26;;;;;;;7.90;4.43;;;;;;;;;;5077380;28;20047;-38
2022/01/17 11:02:59;;;;;;;8.88;4.93;;;;;;;;;;5077060;28;20085;-38
2022/01/17 11:05:27;;;;;;;6.85;4.60;;;;;;;;;;5077299;28;20033;-39
2022/01/17 11:07:55;;;;;;;8.85;5.20;;;;;;;;;;5077213;28;20024;-38
2022/01/17 11:10:23;;;;;;;9.90;3.75;;;;;;;;;;5077500;28;20029;-37
2022/01/17 11:12:50;;;;;;;7.25;4.00;;;;;;;;;;5075888;28;20024;-37
2022/01/17 11:15:17;;;;;;;5.28;3.90;;;;;;;;;;5073387;28;20043;-38
2022/01/17 11:18:05;;;;;;;8.70;4.10;;;;;;;;;;5073981;28;20021;-38
2022/01/17 11:20:33;;;;;;;8.05;4.55;;;;;;;;;;5074011;28;20544;-37
2022/01/17 11:23:06;;;;;;;9.70;4.70;;;;;;;;;;5073796;28;20028;-37
2022/01/17 11:25:36;;;;;;;7.15;4.07;;;;;;;;;;5073839;28;20139;-37
2022/01/17 11:28:04;;;;;;;9.55;4.15;;;;;;;;;;5074061;28;20029;-38
2022/01/17 11:30:33;;;;;;;9.10;4.05;;;;;;;;;;5073634;28;20082;-38
2022/01/17 11:33:00;;;;;;;9.10;3.92;;;;;;;;;;5073733;28;20021;-38
2022/01/17 11:35:26;;;;;;;9.13;4.85;;;;;;;;;;5073858;28;20379;-38
2022/01/17 11:37:58;;;;;;;7.07;4.30;;;;;;;;;;5073479;28;20075;-38
2022/01/17 11:40:34;;;;;;;7.07;3.85;;;;;;;;;;5073370;28;20027;-38
2022/01/17 11:43:05;;;;;;;6.15;3.80;;;;;;;;;;5073474;28;20039;-39
2022/01/17 11:45:31;;;;;;;8.68;5.22;;;;;;;;;;5073437;28;20111;-38
2022/01/17 11:47:58;;;;;;;6.38;4.20;;;;;;;;;;5073612;28;20036;-38
2022/01/17 11:50:27;;;;;;;7.55;3.38;;;;;;;;;;5073423;28;20459;-38
2022/01/17 11:52:52;;;;;;;8.57;4.82;;;;;;;;;;5073506;28;20031;-38
2022/01/17 11:55:36;;;;;;;8.32;4.38;;;;;;;;;;5073255;28;20020;-38
2022/01/17 11:58:22;;;;;;;5.78;3.67;;;;;;;;;;5088751;28;20035;-38
2022/01/17 12:01:08;;;;;;;6.88;3.65;;;;;;;;;;5071410;28;20190;-38
2022/01/17 12:03:34;;;;;;;8.65;3.92;;;;;;;;;;5072921;28;20119;-39
2022/01/17 12:06:04;;;;;;;7.95;4.05;;;;;;;;;;5073222;28;20153;-38
2022/01/17 12:08:30;;;;;;;7.20;3.85;;;;;;;;;;5073354;28;20364;-38
2022/01/17 12:10:57;;;;;;;6.15;3.92;;;;;;;;;;5072966;28;20016;-37
2022/01/17 12:13:33;;;;;;;7.70;3.58;;;;;;;;;;5072815;28;20021;-38
2022/01/17 12:16:18;;;;;;;6.53;3.75;;;;;;;;;;5072755;28;20049;-38
2022/01/17 12:19:03;;;;;;;4.63;3.65;;;;;;;;;;5071678;28;20040;-38
2022/01/17 12:21:32;;;;;;;6.50;2.83;;;;;;;;;;5088392;28;20068;-38
2022/01/17 12:24:17;;;;;;;6.45;3.10;;;;;;;;;;5072701;28;20081;-37
2022/01/17 12:26:58;;;;;;;6.68;3.42;;;;;;;;;;5072720;28;20115;-38
2022/01/17 12:29:42;;;;;;;4.53;3.28;;;;;;;;;;5072548;28;20025;-38
2022/01/17 12:32:31;;;;;;;6.93;3.55;;;;;;;;;;5072781;28;20066;-38
2022/01/17 12:35:08;;;;;;;5.47;3.63;;;;;;;;;;5065828;28;20046;-38
2022/01/17 12:37:36;;;;;;;5.32;2.70;;;;;;;;;;5072380;28;20041;-38
2022/01/17 12:40:11;;;;;;;4.88;3.70;;;;;;;;;;5088113;28;20063;-37
2022/01/17 12:42:56;;;;;;;2.63;2.15;;;;;;;;;;5072026;28;20139;-38
2022/01/17 12:45:32;;;;;;;6.50;3.40;;;;;;;;;;5072371;28;20032;-38
2022/01/17 12:47:59;;;;;;;5.35;3.50;;;;;;;;;;5072308;28;20033;-38
2022/01/17 12:50:27;;;;;;;5.45;3.03;;;;;;;;;;5070947;28;20116;-38
2022/01/17 12:52:57;;;;;;;3.30;2.90;;;;;;;;;;5072048;28;20793;-38
2022/01/17 12:55:23;;;;;;;7.10;4.03;;;;;;;;;;5072014;28;20028;-38
2022/01/17 12:57:50;;;;;;;4.47;2.85;;;;;;;;;;5072316;28;20089;-38
2022/01/17 13:00:23;;;;;;;5.65;2.60;;;;;;;;;;5072013;28;20056;-38
2022/01/17 13:02:50;;;;;;;3.30;2.80;;;;;;;;;;5071792;28;20048;-38
2022/01/17 13:05:20;;;;;;;7.60;2.60;;;;;;;;;;5071914;28;20029;-38
2022/01/17 13:07:45;;;;;;;4.63;2.55;;;;;;;;;;5071881;28;20090;-38
2022/01/17 13:10:11;;;;;;;4.80;2.28;;;;;;;;;;5071626;28;20036;-38
2022/01/17 13:12:38;;;;;;;6.32;2.85;;;;;;;;;;5072131;28;20034;-38
2022/01/17 13:15:04;;;;;;;6.18;3.17;;;;;;;;;;5071734;28;20024;-38
2022/01/17 13:17:32;;;;;;;3.85;3.03;;;;;;;;;;5071683;28;20040;-38
2022/01/17 13:19:58;;;;;;;4.25;2.50;;;;;;;;;;5071676;28;20074;-38
2022/01/17 13:22:25;;;;;;;4.40;2.40;;;;;;;;;;5071562;28;20025;-39
2022/01/17 13:25:02;;;;;;;6.03;2.60;;;;;;;;;;5071830;28;20048;-38
2022/01/17 13:27:31;;;;;;;5.43;2.83;;;;;;;;;;5071661;28;20052;-38
2022/01/17 13:29:57;;;;;;;4.57;2.35;;;;;;;;;;5071543;28;20378;-38
2022/01/17 13:32:31;;;;;;;4.72;2.05;;;;;;;;;;5071458;28;20028;-38
2022/01/17 13:35:04;;;;;;;5.15;2.88;;;;;;;;;;5071439;28;20499;-38
2022/01/17 13:37:30;;;;;;;6.80;2.53;;;;;;;;;;5071024;28;20498;-38
2022/01/17 13:39:56;;;;;;;3.58;1.85;;;;;;;;;;5071627;28;20107;-38
2022/01/17 13:42:24;;;;;;;5.30;2.33;;;;;;;;;;5071196;28;20502;-40
2022/01/17 13:44:51;;;;;;;4.55;3.22;;;;;;;;;;5086880;28;20029;-38
2022/01/17 13:47:16;;;;;;;2.63;2.08;;;;;;;;;;5071385;28;20024;-38
2022/01/17 13:49:43;;;;;;;4.75;2.67;;;;;;;;;;5071629;28;20352;-38
2022/01/17 13:52:10;;;;;;;4.68;2.30;;;;;;;;;;5071201;28;20249;-38
2022/01/17 13:54:37;;;;;;;4.68;2.60;;;;;;;;;;5071135;28;20124;-38
2022/01/17 13:57:10;;;;;;;5.15;3.05;;;;;;;;;;5071095;28;20115;-38
2022/01/17 13:59:35;;;;;;;8.48;3.88;;;;;;;;;;5071504;28;20044;-39
2022/01/17 14:02:01;;;;;;;3.05;2.15;;;;;;;;;;5071003;28;20429;-38
2022/01/17 14:04:30;;;;;;;2.83;2.13;;;;;;;;;;5071692;28;20111;-38
2022/01/17 14:06:56;;;;;;;7.25;2.45;;;;;;;;;;5070998;28;20029;-38
2022/01/17 14:09:32;;;;;;;5.70;3.08;;;;;;;;;;5071124;28;20029;-38
2022/01/17 14:12:01;;;;;;;4.22;2.63;;;;;;;;;;5070977;28;20028;-38
2022/01/17 14:14:27;;;;;;;4.25;3.22;;;;;;;;;;5069763;28;20074;-38
2022/01/17 14:16:54;;;;;;;4.88;2.85;;;;;;;;;;5071165;28;20044;-38
2022/01/17 14:19:21;;;;;;;6.53;2.40;;;;;;;;;;5071027;28;20566;-38
2022/01/17 14:21:48;;;;;;;8.02;4.35;;;;;;;;;;5070997;28;20064;-38
2022/01/17 14:24:16;;;;;;;8.80;3.97;;;;;;;;;;5071214;28;20025;-38
2022/01/17 14:26:47;;;;;;;7.72;4.15;;;;;;;;;;5071018;28;20090;-38
2022/01/17 14:29:13;;;;;;;6.18;3.10;;;;;;;;;;5070743;28;20557;-38
2022/01/17 14:31:40;;;;;;;10.60;4.30;;;;;;;;;;5071167;28;20033;-38
2022/01/17 14:34:11;;;;;;;12.15;4.85;;;;;;;;;;5071190;28;20017;-38
2022/01/17 14:36:37;;;;;;;11.85;4.90;;;;;;;;;;5070997;28;20037;-38
2022/01/17 14:39:05;;;;;;;7.40;4.18;;;;;;;;;;5070856;28;20023;-38
2022/01/17 14:41:40;;;;;;;6.35;4.43;;;;;;;;;;5070500;28;20056;-38
2022/01/17 14:44:13;;;;;;;8.82;5.28;;;;;;;;;;5070800;28;20035;-38
2022/01/17 14:46:50;;;;;;;9.43;4.53;;;;;;;;;;5070756;28;20479;-38
2022/01/17 14:49:31;;;;;;;8.70;5.05;;;;;;;;;;5074267;28;20071;-38
2022/01/17 14:52:00;;;;;;;8.82;4.93;;;;;;;;;;5074718;28;20027;-38
2022/01/17 14:54:31;;;;;;;7.20;4.57;;;;;;;;;;5074559;28;20103;-38
2022/01/17 15:02:16;;;;;;;9.05;4.70;;;;;;;;;;5074213;28;20029;-38
2022/01/17 15:04:42;;;;;;;9.35;5.38;;;;;;;;;;5074496;28;20055;-38
2022/01/17 15:07:11;;;;;;;8.40;4.50;;;;;;;;;;5074188;28;20077;-38
2022/01/17 15:09:37;;;;;;;10.00;4.82;;;;;;;;;;5074190;28;20037;-38
2022/01/17 15:12:02;;;;;;;7.55;4.20;;;;;;;;;;5073927;28;20025;-38
2022/01/17 15:14:28;;;;;;;9.45;4.80;;;;;;;;;;5074438;28;20032;-38
2022/01/17 15:16:54;;;;;;;9.88;5.68;;;;;;;;;;5073931;28;20087;-38
2022/01/17 15:19:19;;;;;;;9.35;5.38;;;;;;;;;;5074105;28;20081;-38